sensor_id;sensor_type;location;lat;lon;timestamp;pressure;altitude;pressure_sealevel;temperature;humidity
31299;BME280;17927;52.350;13.402;2023-02-05T00:02:06;103583.09;;;3.07;48.66
31299;BME280;17927;52.350;13.402;2023-02-05T00:04:32;103584.91;;;3.04;48.88
31299;BME280;17927;52.350;13.402;2023-02-05T00:06:58;103590.25;;;3.04;48.80
31299;BME280;17927;52.350;13.402;2023-02-05T00:09:23;103590.34;;;3.01;48.75
31299;BME280;17927;52.350;13.402;2023-02-05T00:11:48;103600.13;;;3.01;48.89
31299;BME280;17927;52.350;13.402;2023-02-05T00:14:13;103589.47;;;2.98;48.84
31299;BME280;17927;52.350;13.402;2023-02-05T00:16:39;103584.16;;;2.96;48.88
31299;BME280;17927;52.350;13.402;2023-02-05T00:19:04;103586.84;;;2.96;48.93
31299;BME280;17927;52.350;13.402;2023-02-05T00:21:29;103579.78;;;2.92;49.05
31299;BME280;17927;52.350;13.402;2023-02-05T00:23:54;103587.81;;;2.91;48.92
31299;BME280;17927;52.350;13.402;2023-02-05T00:26:20;103594.09;;;2.88;48.85
31299;BME280;17927;52.350;13.402;2023-02-05T00:28:45;103584.31;;;2.85;48.87
31299;BME280;17927;52.350;13.402;2023-02-05T00:31:16;103582.59;;;2.81;48.80
31299;BME280;17927;52.350;13.402;2023-02-05T00:33:42;103582.69;;;2.77;48.85
31299;BME280;17927;52.350;13.402;2023-02-05T00:36:08;103580.94;;;2.74;48.77
31299;BME280;17927;52.350;13.402;2023-02-05T00:38:33;103585.38;;;2.73;48.85
31299;BME280;17927;52.350;13.402;2023-02-05T00:40:59;103576.53;;;2.71;48.83
31299;BME280;17927;52.350;13.402;2023-02-05T00:43:24;103577.44;;;2.69;48.77
31299;BME280;17927;52.350;13.402;2023-02-05T00:45:49;103582.78;;;2.69;49.32
31299;BME280;17927;52.350;13.402;2023-02-05T00:48:14;103589.03;;;2.69;49.01
31299;BME280;17927;52.350;13.402;2023-02-05T00:50:40;103586.34;;;2.69;48.99
31299;BME280;17927;52.350;13.402;2023-02-05T00:53:05;103585.50;;;2.67;48.86
31299;BME280;17927;52.350;13.402;2023-02-05T00:55:31;103580.19;;;2.64;48.84
31299;BME280;17927;52.350;13.402;2023-02-05T00:57:56;103576.66;;;2.64;48.75
31299;BME280;17927;52.350;13.402;2023-02-05T01:00:22;103577.59;;;2.59;48.87
31299;BME280;17927;52.350;13.402;2023-02-05T01:02:47;103570.53;;;2.55;49.02
31299;BME280;17927;52.350;13.402;2023-02-05T01:05:12;103572.31;;;2.55;48.89
31299;BME280;17927;52.350;13.402;2023-02-05T01:07:37;103579.47;;;2.53;48.84
31299;BME280;17927;52.350;13.402;2023-02-05T01:10:03;103570.63;;;2.48;48.96
31299;BME280;17927;52.350;13.402;2023-02-05T01:12:29;103564.47;;;2.44;48.93
31299;BME280;17927;52.350;13.402;2023-02-05T01:14:54;103556.53;;;2.38;48.97
31299;BME280;17927;52.350;13.402;2023-02-05T01:17:19;103549.47;;;2.35;49.07
31299;BME280;17927;52.350;13.402;2023-02-05T01:19:45;103549.53;;;2.29;49.17
31299;BME280;17927;52.350;13.402;2023-02-05T01:22:10;103540.69;;;2.25;49.14
31299;BME280;17927;52.350;13.402;2023-02-05T01:24:36;103538.09;;;2.21;49.23
31299;BME280;17927;52.350;13.402;2023-02-05T01:27:02;103532.81;;;2.16;49.17
31299;BME280;17927;52.350;13.402;2023-02-05T01:29:28;103533.72;;;2.15;49.33
31299;BME280;17927;52.350;13.402;2023-02-05T01:31:53;103527.56;;;2.10;49.26
31299;BME280;17927;52.350;13.402;2023-02-05T01:34:19;103531.13;;;2.09;49.27
31299;BME280;17927;52.350;13.402;2023-02-05T01:36:44;103522.28;;;2.05;49.30
31299;BME280;17927;52.350;13.402;2023-02-05T01:39:10;103522.31;;;2.02;49.19
31299;BME280;17927;52.350;13.402;2023-02-05T01:41:35;103522.34;;;2.01;49.34
31299;BME280;17927;52.350;13.402;2023-02-05T01:44:16;103532.16;;;1.98;49.29
31299;BME280;17927;52.350;13.402;2023-02-05T01:46:46;103525.97;;;1.93;49.16
31299;BME280;17927;52.350;13.402;2023-02-05T01:49:20;103534.00;;;1.92;49.28
31299;BME280;17927;52.350;13.402;2023-02-05T01:51:47;103531.34;;;1.90;49.27
31299;BME280;17927;52.350;13.402;2023-02-05T01:54:15;103523.41;;;1.86;49.34
31299;BME280;17927;52.350;13.402;2023-02-05T01:56:46;103527.03;;;1.80;49.40
31299;BME280;17927;52.350;13.402;2023-02-05T01:59:19;103511.13;;;1.72;49.66
31299;BME280;17927;52.350;13.402;2023-02-05T02:01:45;103509.38;;;1.68;49.44
31299;BME280;17927;52.350;13.402;2023-02-05T02:04:14;103504.97;;;1.65;49.53
31299;BME280;17927;52.350;13.402;2023-02-05T02:06:41;103505.88;;;1.64;49.62
31299;BME280;17927;52.350;13.402;2023-02-05T02:09:07;103492.56;;;1.61;49.59
31299;BME280;17927;52.350;13.402;2023-02-05T02:11:35;103486.38;;;1.61;49.60
31299;BME280;17927;52.350;13.402;2023-02-05T02:14:03;103504.13;;;1.60;49.60
31299;BME280;17927;52.350;13.402;2023-02-05T02:16:32;103497.94;;;1.58;49.59
31299;BME280;17927;52.350;13.402;2023-02-05T02:18:57;103488.19;;;1.57;49.64
31299;BME280;17927;52.350;13.402;2023-02-05T02:24:21;103481.13;;;1.53;49.53
31299;BME280;17927;52.350;13.402;2023-02-05T02:27:29;103479.38;;;1.50;49.64
31299;BME280;17927;52.350;13.402;2023-02-05T02:29:57;103479.47;;;1.44;49.67
31299;BME280;17927;52.350;13.402;2023-02-05T02:32:46;103480.34;;;1.43;49.53
31299;BME280;17927;52.350;13.402;2023-02-05T02:35:23;103470.63;;;1.39;49.54
31299;BME280;17927;52.350;13.402;2023-02-05T02:38:01;103471.53;;;1.38;49.51
31299;BME280;17927;52.350;13.402;2023-02-05T02:40:39;103471.56;;;1.33;49.58
31299;BME280;17927;52.350;13.402;2023-02-05T02:43:13;103457.38;;;1.31;49.69
31299;BME280;17927;52.350;13.402;2023-02-05T02:45:45;103461.84;;;1.31;49.50
31299;BME280;17927;52.350;13.402;2023-02-05T02:48:13;103457.41;;;1.30;49.57
31299;BME280;17927;52.350;13.402;2023-02-05T02:50:43;103452.06;;;1.28;49.64
31299;BME280;17927;52.350;13.402;2023-02-05T02:53:13;103451.22;;;1.26;49.62
31299;BME280;17927;52.350;13.402;2023-02-05T02:55:41;103453.00;;;1.26;49.58
31299;BME280;17927;52.350;13.402;2023-02-05T02:58:13;103448.59;;;1.23;49.58
31299;BME280;17927;52.350;13.402;2023-02-05T03:00:40;103453.06;;;1.21;49.57
31299;BME280;17927;52.350;13.402;2023-02-05T03:03:08;103444.19;;;1.19;49.57
31299;BME280;17927;52.350;13.402;2023-02-05T03:05:36;103447.78;;;1.16;49.52
31299;BME280;17927;52.350;13.402;2023-02-05T03:08:07;103451.34;;;1.15;49.61
31299;BME280;17927;52.350;13.402;2023-02-05T03:10:49;103454.00;;;1.14;49.47
31299;BME280;17927;52.350;13.402;2023-02-05T03:13:17;103452.28;;;1.08;49.50
31299;BME280;17927;52.350;13.402;2023-02-05T03:15:44;103451.44;;;1.08;49.44
31299;BME280;17927;52.350;13.402;2023-02-05T03:18:11;103458.53;;;1.05;49.58
31299;BME280;17927;52.350;13.402;2023-02-05T03:20:57;103454.09;;;1.06;49.48
31299;BME280;17927;52.350;13.402;2023-02-05T03:23:25;103446.13;;;1.03;49.54
31299;BME280;17927;52.350;13.402;2023-02-05T03:25:51;103455.03;;;1.00;49.65
31299;BME280;17927;52.350;13.402;2023-02-05T03:28:16;103463.03;;;0.99;49.80
31299;BME280;17927;52.350;13.402;2023-02-05T03:33:34;103456.88;;;0.94;49.81
31299;BME280;17927;52.350;13.402;2023-02-05T03:36:21;103466.63;;;0.91;49.66
31299;BME280;17927;52.350;13.402;2023-02-05T03:39:03;103459.56;;;0.90;49.77
31299;BME280;17927;52.350;13.402;2023-02-05T03:41:54;103452.47;;;0.89;49.84
31299;BME280;17927;52.350;13.402;2023-02-05T03:47:04;103455.22;;;0.80;49.91
31299;BME280;17927;52.350;13.402;2023-02-05T03:49:53;103456.13;;;0.78;50.13
31299;BME280;17927;52.350;13.402;2023-02-05T03:52:28;103458.81;;;0.74;50.19
31299;BME280;17927;52.350;13.402;2023-02-05T03:55:06;103455.25;;;0.74;50.06
31299;BME280;17927;52.350;13.402;2023-02-05T04:00:18;103455.28;;;0.71;50.17
31299;BME280;17927;52.350;13.402;2023-02-05T04:02:43;103449.09;;;0.70;50.47
31299;BME280;17927;52.350;13.402;2023-02-05T04:05:09;103455.28;;;0.72;50.36
31299;BME280;17927;52.350;13.402;2023-02-05T04:07:34;103460.56;;;0.74;50.31
31299;BME280;17927;52.350;13.402;2023-02-05T04:09:59;103462.34;;;0.77;50.29
31299;BME280;17927;52.350;13.402;2023-02-05T04:12:24;103469.41;;;0.79;50.23
31299;BME280;17927;52.350;13.402;2023-02-05T04:14:50;103472.06;;;0.79;50.43
31299;BME280;17927;52.350;13.402;2023-02-05T04:17:15;103474.72;;;0.81;50.45
31299;BME280;17927;52.350;13.402;2023-02-05T04:19:40;103479.13;;;0.85;50.45
31299;BME280;17927;52.350;13.402;2023-02-05T04:22:05;103477.31;;;0.88;50.55
31299;BME280;17927;52.350;13.402;2023-02-05T04:24:31;103490.59;;;0.91;50.23
31299;BME280;17927;52.350;13.402;2023-02-05T04:26:56;103489.69;;;0.94;50.43
31299;BME280;17927;52.350;13.402;2023-02-05T04:29:21;103489.69;;;0.96;50.40
31299;BME280;17927;52.350;13.402;2023-02-05T04:31:46;103479.00;;;0.97;50.32
31299;BME280;17927;52.350;13.402;2023-02-05T04:34:12;103474.59;;;0.98;50.62
31299;BME280;17927;52.350;13.402;2023-02-05T04:36:37;103478.13;;;1.00;50.57
31299;BME280;17927;52.350;13.402;2023-02-05T04:39:02;103473.66;;;1.00;50.49
31299;BME280;17927;52.350;13.402;2023-02-05T04:41:28;103463.91;;;1.01;50.71
31299;BME280;17927;52.350;13.402;2023-02-05T04:43:53;103463.91;;;1.01;50.81
31299;BME280;17927;52.350;13.402;2023-02-05T04:46:18;103457.66;;;1.02;50.61
31299;BME280;17927;52.350;13.402;2023-02-05T04:48:43;103466.53;;;1.04;50.67
31299;BME280;17927;52.350;13.402;2023-02-05T04:51:10;103463.88;;;1.05;50.73
31299;BME280;17927;52.350;13.402;2023-02-05T04:53:36;103455.88;;;1.05;50.70
31299;BME280;17927;52.350;13.402;2023-02-05T04:56:09;103462.97;;;1.06;50.63
31299;BME280;17927;52.350;13.402;2023-02-05T04:58:35;103462.06;;;1.06;50.58
31299;BME280;17927;52.350;13.402;2023-02-05T05:01:01;103453.22;;;1.05;50.66
31299;BME280;17927;52.350;13.402;2023-02-05T05:03:26;103456.78;;;1.04;50.44
31299;BME280;17927;52.350;13.402;2023-02-05T05:05:51;103462.97;;;1.06;50.58
31299;BME280;17927;52.350;13.402;2023-02-05T05:08:16;103471.81;;;1.07;50.79
31299;BME280;17927;52.350;13.402;2023-02-05T05:10:43;103474.50;;;1.09;50.76
31299;BME280;17927;52.350;13.402;2023-02-05T05:13:08;103471.78;;;1.13;50.92
31299;BME280;17927;52.350;13.402;2023-02-05T05:15:34;103456.66;;;1.14;50.98
31299;BME280;17927;52.350;13.402;2023-02-05T05:17:59;103462.88;;;1.16;50.88
31299;BME280;17927;52.350;13.402;2023-02-05T05:20:24;103454.91;;;1.14;50.91
31299;BME280;17927;52.350;13.402;2023-02-05T05:22:49;103464.63;;;1.17;50.97
31299;BME280;17927;52.350;13.402;2023-02-05T05:25:15;103458.41;;;1.18;51.10
31299;BME280;17927;52.350;13.402;2023-02-05T05:27:40;103453.06;;;1.19;50.98
31299;BME280;17927;52.350;13.402;2023-02-05T05:30:06;103453.06;;;1.21;51.05
31299;BME280;17927;52.350;13.402;2023-02-05T05:32:31;103466.34;;;1.23;51.08
31299;BME280;17927;52.350;13.402;2023-02-05T05:34:56;103464.56;;;1.25;51.09
31299;BME280;17927;52.350;13.402;2023-02-05T05:37:22;103460.09;;;1.25;50.94
31299;BME280;17927;52.350;13.402;2023-02-05T05:39:47;103451.25;;;1.25;51.15
31299;BME280;17927;52.350;13.402;2023-02-05T05:42:31;103455.69;;;1.24;51.15
31299;BME280;17927;52.350;13.402;2023-02-05T05:45:15;103465.47;;;1.24;51.23
31299;BME280;17927;52.350;13.402;2023-02-05T05:47:40;103478.78;;;1.24;51.30
31299;BME280;17927;52.350;13.402;2023-02-05T05:50:06;103489.41;;;1.25;51.14
31299;BME280;17927;52.350;13.402;2023-02-05T05:52:31;103481.41;;;1.25;51.30
31299;BME280;17927;52.350;13.402;2023-02-05T05:54:56;103484.03;;;1.28;51.24
31299;BME280;17927;52.350;13.402;2023-02-05T05:57:21;103494.69;;;1.28;51.17
31299;BME280;17927;52.350;13.402;2023-02-05T05:59:46;103491.16;;;1.31;51.09
31299;BME280;17927;52.350;13.402;2023-02-05T06:02:12;103496.47;;;1.31;51.16
31299;BME280;17927;52.350;13.402;2023-02-05T06:04:37;103483.16;;;1.29;51.06
31299;BME280;17927;52.350;13.402;2023-02-05T06:07:02;103477.84;;;1.28;51.17
31299;BME280;17927;52.350;13.402;2023-02-05T06:09:28;103474.31;;;1.26;51.03
31299;BME280;17927;52.350;13.402;2023-02-05T06:11:53;103464.56;;;1.25;51.08
31299;BME280;17927;52.350;13.402;2023-02-05T06:14:18;103469.91;;;1.23;51.12
31299;BME280;17927;52.350;13.402;2023-02-05T06:16:44;103471.69;;;1.21;51.18
31299;BME280;17927;52.350;13.402;2023-02-05T06:19:09;103475.22;;;1.21;51.16
31299;BME280;17927;52.350;13.402;2023-02-05T06:21:34;103470.81;;;1.20;51.42
31299;BME280;17927;52.350;13.402;2023-02-05T06:23:59;103460.19;;;1.19;51.54
31299;BME280;17927;52.350;13.402;2023-02-05T06:26:25;103465.50;;;1.17;51.28
31299;BME280;17927;52.350;13.402;2023-02-05T06:28:50;103457.53;;;1.19;51.27
31299;BME280;17927;52.350;13.402;2023-02-05T06:31:15;103477.03;;;1.19;51.43
31299;BME280;17927;52.350;13.402;2023-02-05T06:33:42;103472.59;;;1.20;51.41
31299;BME280;17927;52.350;13.402;2023-02-05T06:36:07;103463.69;;;1.23;51.38
31299;BME280;17927;52.350;13.402;2023-02-05T06:38:32;103459.25;;;1.23;51.56
31299;BME280;17927;52.350;13.402;2023-02-05T06:40:58;103454.81;;;1.24;51.50
31299;BME280;17927;52.350;13.402;2023-02-05T06:43:23;103461.00;;;1.26;51.57
31299;BME280;17927;52.350;13.402;2023-02-05T06:45:48;103461.88;;;1.26;51.59
31299;BME280;17927;52.350;13.402;2023-02-05T06:48:13;103470.75;;;1.27;51.74
31299;BME280;17927;52.350;13.402;2023-02-05T06:50:39;103470.72;;;1.30;51.79
31299;BME280;17927;52.350;13.402;2023-02-05T06:53:04;103463.59;;;1.32;51.84
31299;BME280;17927;52.350;13.402;2023-02-05T06:55:29;103449.38;;;1.31;51.89
31299;BME280;17927;52.350;13.402;2023-02-05T06:57:54;103462.66;;;1.36;51.84
31299;BME280;17927;52.350;13.402;2023-02-05T07:00:20;103461.72;;;1.40;52.05
31299;BME280;17927;52.350;13.402;2023-02-05T07:02:45;103464.34;;;1.46;52.05
31299;BME280;17927;52.350;13.402;2023-02-05T07:05:10;103477.56;;;1.52;52.24
31299;BME280;17927;52.350;13.402;2023-02-05T07:07:36;103482.84;;;1.59;52.11
31299;BME280;17927;52.350;13.402;2023-02-05T07:10:01;103481.00;;;1.64;52.13
31299;BME280;17927;52.350;13.402;2023-02-05T07:12:26;103485.41;;;1.68;52.39
31299;BME280;17927;52.350;13.402;2023-02-05T07:14:53;103487.16;;;1.71;52.16
31299;BME280;17927;52.350;13.402;2023-02-05T07:17:18;103488.03;;;1.71;52.21
31299;BME280;17927;52.350;13.402;2023-02-05T07:19:44;103492.47;;;1.72;52.08
31299;BME280;17927;52.350;13.402;2023-02-05T07:22:12;103476.44;;;1.75;52.16
31299;BME280;17927;52.350;13.402;2023-02-05T07:24:37;103468.41;;;1.78;52.37
31299;BME280;17927;52.350;13.402;2023-02-05T07:27:02;103465.69;;;1.81;52.46
31299;BME280;17927;52.350;13.402;2023-02-05T07:29:28;103464.75;;;1.86;52.28
31299;BME280;17927;52.350;13.402;2023-02-05T07:31:53;103453.16;;;1.90;52.60
31299;BME280;17927;52.350;13.402;2023-02-05T07:34:19;103462.91;;;1.91;52.13
31299;BME280;17927;52.350;13.402;2023-02-05T07:36:44;103465.50;;;1.95;52.56
31299;BME280;17927;52.350;13.402;2023-02-05T07:39:10;103472.56;;;2.00;52.43
31299;BME280;17927;52.350;13.402;2023-02-05T07:41:35;103469.84;;;2.03;52.49
31299;BME280;17927;52.350;13.402;2023-02-05T07:44:00;103466.28;;;2.05;52.29
31299;BME280;17927;52.350;13.402;2023-02-05T07:46:26;103472.44;;;2.09;52.65
31299;BME280;17927;52.350;13.402;2023-02-05T07:48:52;103467.94;;;2.12;52.30
31299;BME280;17927;52.350;13.402;2023-02-05T07:51:20;103464.34;;;2.17;52.44
31299;BME280;17927;52.350;13.402;2023-02-05T07:53:46;103454.50;;;2.20;52.64
31299;BME280;17927;52.350;13.402;2023-02-05T07:56:12;103443.81;;;2.22;52.58
31299;BME280;17927;52.350;13.402;2023-02-05T07:58:37;103446.44;;;2.23;52.36
31299;BME280;17927;52.350;13.402;2023-02-05T08:01:03;103443.78;;;2.25;52.53
31299;BME280;17927;52.350;13.402;2023-02-05T08:03:30;103446.44;;;2.25;52.59
31299;BME280;17927;52.350;13.402;2023-02-05T08:05:55;103449.94;;;2.27;52.53
31299;BME280;17927;52.350;13.402;2023-02-05T08:08:21;103451.72;;;2.30;52.81
31299;BME280;17927;52.350;13.402;2023-02-05T08:10:47;103450.81;;;2.31;52.64
31299;BME280;17927;52.350;13.402;2023-02-05T08:13:12;103448.06;;;2.34;52.67
31299;BME280;17927;52.350;13.402;2023-02-05T08:15:39;103445.38;;;2.35;52.57
31299;BME280;17927;52.350;13.402;2023-02-05T08:18:05;103439.13;;;2.38;52.72
31299;BME280;17927;52.350;13.402;2023-02-05T08:20:30;103445.28;;;2.41;52.71
31299;BME280;17927;52.350;13.402;2023-02-05T08:22:56;103450.56;;;2.46;52.75
31299;BME280;17927;52.350;13.402;2023-02-05T08:25:21;103442.50;;;2.49;52.75
31299;BME280;17927;52.350;13.402;2023-02-05T08:27:46;103436.25;;;2.52;52.83
31299;BME280;17927;52.350;13.402;2023-02-05T08:30:14;103437.03;;;2.57;52.84
31299;BME280;17927;52.350;13.402;2023-02-05T08:32:40;103431.66;;;2.60;52.83
31299;BME280;17927;52.350;13.402;2023-02-05T08:35:05;103436.94;;;2.65;52.84
31299;BME280;17927;52.350;13.402;2023-02-05T08:37:31;103440.44;;;2.68;52.88
31299;BME280;17927;52.350;13.402;2023-02-05T08:39:56;103434.97;;;2.74;53.08
31299;BME280;17927;52.350;13.402;2023-02-05T08:42:21;103432.19;;;2.81;53.01
31299;BME280;17927;52.350;13.402;2023-02-05T08:44:48;103426.78;;;2.85;52.96
31299;BME280;17927;52.350;13.402;2023-02-05T08:47:14;103420.44;;;2.91;53.00
31299;BME280;17927;52.350;13.402;2023-02-05T08:49:42;103426.53;;;2.98;52.95
31299;BME280;17927;52.350;13.402;2023-02-05T08:52:07;103430.91;;;3.03;53.06
31299;BME280;17927;52.350;13.402;2023-02-05T08:54:32;103429.03;;;3.09;52.88
31299;BME280;17927;52.350;13.402;2023-02-05T08:56:58;103431.59;;;3.15;53.15
31299;BME280;17927;52.350;13.402;2023-02-05T08:59:23;103434.13;;;3.21;52.80
31299;BME280;17927;52.350;13.402;2023-02-05T09:01:48;103426.88;;;3.28;52.91
31299;BME280;17927;52.350;13.402;2023-02-05T09:04:16;103430.34;;;3.34;53.09
31299;BME280;17927;52.350;13.402;2023-02-05T09:06:42;103425.75;;;3.40;52.63
31299;BME280;17927;52.350;13.402;2023-02-05T09:09:07;103419.44;;;3.44;52.55
31299;BME280;17927;52.350;13.402;2023-02-05T09:11:33;103419.34;;;3.48;52.54
31299;BME280;17927;52.350;13.402;2023-02-05T09:13:58;103422.81;;;3.54;52.58
31299;BME280;17927;52.350;13.402;2023-02-05T09:16:24;103417.38;;;3.58;52.56
31299;BME280;17927;52.350;13.402;2023-02-05T09:18:52;103427.97;;;3.63;52.63
31299;BME280;17927;52.350;13.402;2023-02-05T09:21:17;103429.66;;;3.67;52.60
31299;BME280;17927;52.350;13.402;2023-02-05T09:23:43;103421.59;;;3.70;52.58
31299;BME280;17927;52.350;13.402;2023-02-05T09:26:08;103425.06;;;3.74;52.50
31299;BME280;17927;52.350;13.402;2023-02-05T09:28:34;103421.41;;;3.78;52.59
31299;BME280;17927;52.350;13.402;2023-02-05T09:31:07;103418.66;;;3.83;52.44
31299;BME280;17927;52.350;13.402;2023-02-05T09:33:33;103423.06;;;3.84;52.38
31299;BME280;17927;52.350;13.402;2023-02-05T09:36:04;103423.03;;;3.85;52.33
31299;BME280;17927;52.350;13.402;2023-02-05T09:38:29;103424.06;;;3.79;52.35
31299;BME280;17927;52.350;13.402;2023-02-05T09:41:14;103420.41;;;3.82;52.58
31299;BME280;17927;52.350;13.402;2023-02-05T09:43:50;103418.47;;;3.90;52.44
31299;BME280;17927;52.350;13.402;2023-02-05T09:49:20;103424.44;;;4.03;52.27
31299;BME280;17927;52.350;13.402;2023-02-05T09:51:49;103426.09;;;4.07;52.32
31299;BME280;17927;52.350;13.402;2023-02-05T09:54:24;103426.84;;;4.14;52.24
31299;BME280;17927;52.350;13.402;2023-02-05T09:56:53;103424.94;;;4.19;52.17
31299;BME280;17927;52.350;13.402;2023-02-05T09:59:23;103422.16;;;4.24;52.07
31299;BME280;17927;52.350;13.402;2023-02-05T10:01:55;103414.00;;;4.29;52.18
31299;BME280;17927;52.350;13.402;2023-02-05T10:04:21;103422.81;;;4.34;52.17
31299;BME280;17927;52.350;13.402;2023-02-05T10:06:57;103424.53;;;4.38;51.99
31299;BME280;17927;52.350;13.402;2023-02-05T10:20:27;103418.63;;;4.60;51.89
31299;BME280;17927;52.350;13.402;2023-02-05T10:23:12;103413.03;;;4.69;51.98
31299;BME280;17927;52.350;13.402;2023-02-05T10:26:02;103406.59;;;4.76;51.82
31299;BME280;17927;52.350;13.402;2023-02-05T10:31:05;103403.63;;;4.88;51.76
31299;BME280;17927;52.350;13.402;2023-02-05T10:33:44;103399.88;;;4.94;51.73
31299;BME280;17927;52.350;13.402;2023-02-05T10:36:11;103393.44;;;5.01;51.42
31299;BME280;17927;52.350;13.402;2023-02-05T10:38:42;103380.84;;;5.05;51.48
31299;BME280;17927;52.350;13.402;2023-02-05T10:41:28;103379.78;;;5.11;51.23
31299;BME280;17927;52.350;13.402;2023-02-05T10:44:03;103381.41;;;5.16;51.11
31299;BME280;17927;52.350;13.402;2023-02-05T10:46:35;103374.06;;;5.23;51.25
31299;BME280;17927;52.350;13.402;2023-02-05T10:49:15;103367.56;;;5.32;50.94
31299;BME280;17927;52.350;13.402;2023-02-05T10:51:44;103365.69;;;5.36;50.89
31299;BME280;17927;52.350;13.402;2023-02-05T10:54:29;103367.28;;;5.41;50.80
31299;BME280;17927;52.350;13.402;2023-02-05T10:56:55;103354.78;;;5.42;50.80
31299;BME280;17927;52.350;13.402;2023-02-05T10:59:34;103361.84;;;5.44;50.45
31299;BME280;17927;52.350;13.402;2023-02-05T11:02:04;103365.38;;;5.46;50.49
31299;BME280;17927;52.350;13.402;2023-02-05T11:04:44;103361.69;;;5.49;50.23
31299;BME280;17927;52.350;13.402;2023-02-05T11:07:24;103353.66;;;5.49;50.27
31299;BME280;17927;52.350;13.402;2023-02-05T11:09:49;103350.06;;;5.50;50.16
31299;BME280;17927;52.350;13.402;2023-02-05T11:12:20;103341.91;;;5.53;50.06
31299;BME280;17927;52.350;13.402;2023-02-05T11:14:55;103333.78;;;5.56;50.02
31299;BME280;17927;52.350;13.402;2023-02-05T11:17:23;103342.66;;;5.58;49.96
31299;BME280;17927;52.350;13.402;2023-02-05T11:20:04;103355.84;;;5.66;49.91
31299;BME280;17927;52.350;13.402;2023-02-05T11:22:35;103345.94;;;5.68;49.98
31299;BME280;17927;52.350;13.402;2023-02-05T11:25:21;103362.75;;;5.75;49.76
31299;BME280;17927;52.350;13.402;2023-02-05T11:27:58;103353.63;;;5.81;49.98
31299;BME280;17927;52.350;13.402;2023-02-05T11:30:32;103357.81;;;5.89;50.16
31299;BME280;17927;52.350;13.402;2023-02-05T11:33:17;103360.19;;;5.99;49.80
31299;BME280;17927;52.350;13.402;2023-02-05T11:35:56;103356.44;;;6.06;49.99
31299;BME280;17927;52.350;13.402;2023-02-05T11:38:24;103357.03;;;6.14;50.04
31299;BME280;17927;52.350;13.402;2023-02-05T11:40:55;103352.34;;;6.21;49.69
31299;BME280;17927;52.350;13.402;2023-02-05T11:43:25;103353.09;;;6.26;49.53
31299;BME280;17927;52.350;13.402;2023-02-05T11:45:52;103357.44;;;6.30;49.56
31299;BME280;17927;52.350;13.402;2023-02-05T11:51:05;103368.78;;;6.38;49.42
31299;BME280;17927;52.350;13.402;2023-02-05T11:53:31;103362.38;;;6.43;49.62
31299;BME280;17927;52.350;13.402;2023-02-05T11:56:00;103368.53;;;6.46;49.23
31299;BME280;17927;52.350;13.402;2023-02-05T11:58:28;103371.00;;;6.52;49.26
31299;BME280;17927;52.350;13.402;2023-02-05T12:00:58;103365.41;;;6.59;49.56
31299;BME280;17927;52.350;13.402;2023-02-05T12:03:26;103359.78;;;6.66;49.49
31299;BME280;17927;52.350;13.402;2023-02-05T12:06:00;103356.88;;;6.73;49.50
31299;BME280;17927;52.350;13.402;2023-02-05T12:08:46;103354.75;;;6.82;49.10
31299;BME280;17927;52.350;13.402;2023-02-05T12:14:01;103342.72;;;6.93;49.02
31299;BME280;17927;52.350;13.402;2023-02-05T12:16:58;103345.25;;;6.97;49.08
31299;BME280;17927;52.350;13.402;2023-02-05T12:19:34;103333.53;;;7.00;49.18
31299;BME280;17927;52.350;13.402;2023-02-05T12:25:17;103340.13;;;7.15;49.14
31299;BME280;17927;52.350;13.402;2023-02-05T12:27:59;103339.00;;;7.21;48.55
31299;BME280;17927;52.350;13.402;2023-02-05T12:30:52;103341.47;;;7.27;48.66
31299;BME280;17927;52.350;13.402;2023-02-05T12:33:43;103334.16;;;7.30;48.43
31299;BME280;17927;52.350;13.402;2023-02-05T12:36:35;103325.06;;;7.35;48.38
31299;BME280;17927;52.350;13.402;2023-02-05T12:39:36;103326.69;;;7.39;48.13
31299;BME280;17927;52.350;13.402;2023-02-05T12:42:24;103327.34;;;7.45;48.16
31299;BME280;17927;52.350;13.402;2023-02-05T12:45:53;103327.03;;;7.53;47.92
31299;BME280;17927;52.350;13.402;2023-02-05T12:48:20;103323.41;;;7.54;48.12
31299;BME280;17927;52.350;13.402;2023-02-05T12:51:11;103310.63;;;7.59;48.13
31299;BME280;17927;52.350;13.402;2023-02-05T12:53:50;103322.91;;;7.67;48.03
31299;BME280;17927;52.350;13.402;2023-02-05T12:56:41;103324.41;;;7.74;48.03
31299;BME280;17927;52.350;13.402;2023-02-05T12:59:16;103338.56;;;7.79;48.24
31299;BME280;17927;52.350;13.402;2023-02-05T13:01:59;103336.44;;;7.87;47.90
31299;BME280;17927;52.350;13.402;2023-02-05T13:04:35;103329.13;;;7.91;47.79
31299;BME280;17927;52.350;13.402;2023-02-05T13:07:27;103342.41;;;7.96;47.55
31299;BME280;17927;52.350;13.402;2023-02-05T13:10:02;103349.53;;;7.97;47.51
31299;BME280;17927;52.350;13.402;2023-02-05T13:12:34;103350.34;;;7.99;47.02
31299;BME280;17927;52.350;13.402;2023-02-05T13:15:09;103361.13;;;7.99;47.08
31299;BME280;17927;52.350;13.402;2023-02-05T13:17:42;103348.63;;;7.96;46.94
31299;BME280;17927;52.350;13.402;2023-02-05T13:20:21;103356.78;;;7.95;46.69
31299;BME280;17927;52.350;13.402;2023-02-05T13:23:08;103352.41;;;7.92;47.03
31299;BME280;17927;52.350;13.402;2023-02-05T13:25:54;103352.28;;;7.95;46.99
31299;BME280;17927;52.350;13.402;2023-02-05T13:31:30;103350.34;;;7.99;46.77
31299;BME280;17927;52.350;13.402;2023-02-05T13:34:02;103350.28;;;8.00;46.68
31299;BME280;17927;52.350;13.402;2023-02-05T13:39:50;103345.16;;;7.94;47.14
31299;BME280;17927;52.350;13.402;2023-02-05T13:59:20;103381.53;;;8.27;46.77
31299;BME280;17927;52.350;13.402;2023-02-05T14:01:54;103384.03;;;8.31;46.71
31299;BME280;17927;52.350;13.402;2023-02-05T14:04:25;103382.75;;;8.40;46.80